sensor_id;sensor_type;location;lat;lon;timestamp;temperature;humidity
74488;DHT22;63019;51.080;13.642;2023-08-24T00:00:15;18.90;95.00
74488;DHT22;63019;51.080;13.642;2023-08-24T00:01:18;18.90;95.30
74488;DHT22;63019;51.080;13.642;2023-08-24T00:02:19;18.90;95.30
74488;DHT22;63019;51.080;13.642;2023-08-24T00:03:21;19.00;95.30
74488;DHT22;63019;51.080;13.642;2023-08-24T00:04:24;19.00;95.20
74488;DHT22;63019;51.080;13.642;2023-08-24T00:05:26;19.00;95.20
74488;DHT22;63019;51.080;13.642;2023-08-24T00:06:28;19.00;95.20
74488;DHT22;63019;51.080;13.642;2023-08-24T00:07:30;19.00;95.10
74488;DHT22;63019;51.080;13.642;2023-08-24T00:08:32;19.00;95.10
74488;DHT22;63019;51.080;13.642;2023-08-24T00:09:34;19.00;95.20
74488;DHT22;63019;51.080;13.642;2023-08-24T00:10:37;19.10;95.20
74488;DHT22;63019;51.080;13.642;2023-08-24T00:11:39;19.00;95.20
74488;DHT22;63019;51.080;13.642;2023-08-24T00:12:41;19.00;95.20
74488;DHT22;63019;51.080;13.642;2023-08-24T00:13:43;19.00;95.10
74488;DHT22;63019;51.080;13.642;2023-08-24T00:15:00;19.00;95.20
74488;DHT22;63019;51.080;13.642;2023-08-24T00:16:02;19.00;95.20
74488;DHT22;63019;51.080;13.642;2023-08-24T00:17:06;18.90;95.30
74488;DHT22;63019;51.080;13.642;2023-08-24T00:18:08;18.90;95.50
74488;DHT22;63019;51.080;13.642;2023-08-24T00:19:10;18.90;95.60
74488;DHT22;63019;51.080;13.642;2023-08-24T00:20:12;18.90;95.40
74488;DHT22;63019;51.080;13.642;2023-08-24T00:21:16;18.90;95.50
74488;DHT22;63019;51.080;13.642;2023-08-24T00:22:25;18.90;95.80
74488;DHT22;63019;51.080;13.642;2023-08-24T00:23:27;18.90;95.70
74488;DHT22;63019;51.080;13.642;2023-08-24T00:24:29;18.90;95.70
74488;DHT22;63019;51.080;13.642;2023-08-24T00:25:32;18.90;95.90
74488;DHT22;63019;51.080;13.642;2023-08-24T00:26:34;18.80;96.10
74488;DHT22;63019;51.080;13.642;2023-08-24T00:27:37;18.80;96.00
74488;DHT22;63019;51.080;13.642;2023-08-24T00:28:39;18.70;96.00
74488;DHT22;63019;51.080;13.642;2023-08-24T00:29:40;18.80;96.10
74488;DHT22;63019;51.080;13.642;2023-08-24T00:30:42;18.70;96.10
74488;DHT22;63019;51.080;13.642;2023-08-24T00:31:44;18.70;96.20
74488;DHT22;63019;51.080;13.642;2023-08-24T00:32:46;18.60;96.30
74488;DHT22;63019;51.080;13.642;2023-08-24T00:33:49;18.60;96.40
74488;DHT22;63019;51.080;13.642;2023-08-24T00:34:52;18.60;96.50
74488;DHT22;63019;51.080;13.642;2023-08-24T00:35:59;18.60;96.60
74488;DHT22;63019;51.080;13.642;2023-08-24T00:37:02;18.60;96.70
74488;DHT22;63019;51.080;13.642;2023-08-24T00:38:03;18.60;96.90
74488;DHT22;63019;51.080;13.642;2023-08-24T00:39:06;18.60;97.00
74488;DHT22;63019;51.080;13.642;2023-08-24T00:40:08;18.60;97.10
74488;DHT22;63019;51.080;13.642;2023-08-24T00:41:12;18.50;97.10
74488;DHT22;63019;51.080;13.642;2023-08-24T00:42:15;18.50;97.10
74488;DHT22;63019;51.080;13.642;2023-08-24T00:43:17;18.50;97.10
74488;DHT22;63019;51.080;13.642;2023-08-24T00:44:19;18.40;97.20
74488;DHT22;63019;51.080;13.642;2023-08-24T00:45:22;18.40;97.70
74488;DHT22;63019;51.080;13.642;2023-08-24T00:46:23;18.40;97.40
74488;DHT22;63019;51.080;13.642;2023-08-24T00:47:29;18.40;97.60
74488;DHT22;63019;51.080;13.642;2023-08-24T00:48:31;18.30;97.50
74488;DHT22;63019;51.080;13.642;2023-08-24T00:49:34;18.30;97.70
74488;DHT22;63019;51.080;13.642;2023-08-24T00:50:36;18.20;97.70
74488;DHT22;63019;51.080;13.642;2023-08-24T00:51:38;18.20;97.80
74488;DHT22;63019;51.080;13.642;2023-08-24T00:52:41;18.20;98.00
74488;DHT22;63019;51.080;13.642;2023-08-24T00:53:44;18.20;98.10
74488;DHT22;63019;51.080;13.642;2023-08-24T00:54:47;18.10;98.10
74488;DHT22;63019;51.080;13.642;2023-08-24T00:55:49;18.00;98.30
74488;DHT22;63019;51.080;13.642;2023-08-24T00:56:52;18.00;98.50
74488;DHT22;63019;51.080;13.642;2023-08-24T00:57:55;18.00;98.60
74488;DHT22;63019;51.080;13.642;2023-08-24T00:58:57;18.00;98.80
74488;DHT22;63019;51.080;13.642;2023-08-24T01:00:02;17.90;98.80
74488;DHT22;63019;51.080;13.642;2023-08-24T01:01:07;17.90;98.90
74488;DHT22;63019;51.080;13.642;2023-08-24T01:02:09;18.00;99.00
74488;DHT22;63019;51.080;13.642;2023-08-24T01:03:11;18.00;99.10
74488;DHT22;63019;51.080;13.642;2023-08-24T01:04:13;18.00;99.10
74488;DHT22;63019;51.080;13.642;2023-08-24T01:05:15;18.10;99.00
74488;DHT22;63019;51.080;13.642;2023-08-24T01:06:17;18.00;99.00
74488;DHT22;63019;51.080;13.642;2023-08-24T01:07:20;18.10;98.90
74488;DHT22;63019;51.080;13.642;2023-08-24T01:08:22;18.10;99.00
74488;DHT22;63019;51.080;13.642;2023-08-24T01:09:25;18.10;98.80
74488;DHT22;63019;51.080;13.642;2023-08-24T01:10:36;18.10;98.80
74488;DHT22;63019;51.080;13.642;2023-08-24T01:13:31;18.10;98.60
74488;DHT22;63019;51.080;13.642;2023-08-24T01:16:18;18.20;99.00
74488;DHT22;63019;51.080;13.642;2023-08-24T01:17:23;18.20;98.80
74488;DHT22;63019;51.080;13.642;2023-08-24T01:18:26;18.20;99.20
74488;DHT22;63019;51.080;13.642;2023-08-24T01:19:46;18.20;98.90
74488;DHT22;63019;51.080;13.642;2023-08-24T01:20:49;18.20;98.80
74488;DHT22;63019;51.080;13.642;2023-08-24T01:21:54;18.20;98.70
74488;DHT22;63019;51.080;13.642;2023-08-24T01:23:35;18.20;98.80
74488;DHT22;63019;51.080;13.642;2023-08-24T01:24:47;18.20;99.00
74488;DHT22;63019;51.080;13.642;2023-08-24T01:26:12;18.20;98.80
74488;DHT22;63019;51.080;13.642;2023-08-24T01:27:15;18.20;99.00
74488;DHT22;63019;51.080;13.642;2023-08-24T01:28:19;18.20;98.90
74488;DHT22;63019;51.080;13.642;2023-08-24T01:29:22;18.20;98.90
74488;DHT22;63019;51.080;13.642;2023-08-24T01:30:24;18.20;99.00
74488;DHT22;63019;51.080;13.642;2023-08-24T01:31:27;18.20;99.10
74488;DHT22;63019;51.080;13.642;2023-08-24T01:32:33;18.10;99.10
74488;DHT22;63019;51.080;13.642;2023-08-24T01:33:36;18.20;99.20
74488;DHT22;63019;51.080;13.642;2023-08-24T01:34:38;18.10;99.20
74488;DHT22;63019;51.080;13.642;2023-08-24T01:35:41;18.00;99.10
74488;DHT22;63019;51.080;13.642;2023-08-24T01:36:44;18.00;99.10
74488;DHT22;63019;51.080;13.642;2023-08-24T01:37:46;18.00;99.10
74488;DHT22;63019;51.080;13.642;2023-08-24T01:38:57;18.00;99.20
74488;DHT22;63019;51.080;13.642;2023-08-24T01:40:21;18.00;99.30
74488;DHT22;63019;51.080;13.642;2023-08-24T01:41:28;18.00;99.50
74488;DHT22;63019;51.080;13.642;2023-08-24T01:42:34;18.00;99.70
74488;DHT22;63019;51.080;13.642;2023-08-24T01:43:38;17.90;99.80
74488;DHT22;63019;51.080;13.642;2023-08-24T01:44:49;17.90;99.80
74488;DHT22;63019;51.080;13.642;2023-08-24T01:45:53;17.80;99.70
74488;DHT22;63019;51.080;13.642;2023-08-24T01:46:58;17.80;99.80
74488;DHT22;63019;51.080;13.642;2023-08-24T01:48:02;17.80;99.80
74488;DHT22;63019;51.080;13.642;2023-08-24T01:49:05;17.80;99.90
74488;DHT22;63019;51.080;13.642;2023-08-24T01:50:09;17.70;99.90
74488;DHT22;63019;51.080;13.642;2023-08-24T01:51:11;17.80;99.80
74488;DHT22;63019;51.080;13.642;2023-08-24T01:52:14;17.80;99.90
74488;DHT22;63019;51.080;13.642;2023-08-24T01:53:16;17.80;99.90
74488;DHT22;63019;51.080;13.642;2023-08-24T01:54:18;17.80;99.90
74488;DHT22;63019;51.080;13.642;2023-08-24T01:55:20;17.80;99.90
74488;DHT22;63019;51.080;13.642;2023-08-24T01:56:22;17.80;99.90
74488;DHT22;63019;51.080;13.642;2023-08-24T01:57:24;17.90;99.90
74488;DHT22;63019;51.080;13.642;2023-08-24T01:58:26;17.90;99.90
74488;DHT22;63019;51.080;13.642;2023-08-24T01:59:28;17.90;99.90
74488;DHT22;63019;51.080;13.642;2023-08-24T02:00:30;17.90;99.90
74488;DHT22;63019;51.080;13.642;2023-08-24T02:01:32;17.90;99.90
74488;DHT22;63019;51.080;13.642;2023-08-24T02:02:35;17.90;99.90
74488;DHT22;63019;51.080;13.642;2023-08-24T02:03:37;17.90;99.90
74488;DHT22;63019;51.080;13.642;2023-08-24T02:04:41;17.90;99.90
74488;DHT22;63019;51.080;13.642;2023-08-24T02:05:43;17.90;99.90
74488;DHT22;63019;51.080;13.642;2023-08-24T02:06:45;17.90;99.90
74488;DHT22;63019;51.080;13.642;2023-08-24T02:07:46;17.80;99.90
74488;DHT22;63019;51.080;13.642;2023-08-24T02:08:49;17.90;99.90
74488;DHT22;63019;51.080;13.642;2023-08-24T02:09:51;17.90;99.90
74488;DHT22;63019;51.080;13.642;2023-08-24T02:10:53;17.90;99.90
74488;DHT22;63019;51.080;13.642;2023-08-24T02:11:54;17.90;99.90
74488;DHT22;63019;51.080;13.642;2023-08-24T02:12:56;17.90;99.90
74488;DHT22;63019;51.080;13.642;2023-08-24T02:13:58;17.90;99.90
74488;DHT22;63019;51.080;13.642;2023-08-24T02:15:00;17.90;99.90
74488;DHT22;63019;51.080;13.642;2023-08-24T02:16:07;17.90;99.90
74488;DHT22;63019;51.080;13.642;2023-08-24T02:17:10;17.80;99.90
74488;DHT22;63019;51.080;13.642;2023-08-24T02:18:12;17.80;99.90
74488;DHT22;63019;51.080;13.642;2023-08-24T02:19:14;17.80;99.90
74488;DHT22;63019;51.080;13.642;2023-08-24T02:20:16;17.80;99.90
74488;DHT22;63019;51.080;13.642;2023-08-24T02:21:18;17.80;99.90
74488;DHT22;63019;51.080;13.642;2023-08-24T02:22:19;17.70;99.90
74488;DHT22;63019;51.080;13.642;2023-08-24T02:23:21;17.70;99.90
74488;DHT22;63019;51.080;13.642;2023-08-24T02:24:23;17.70;99.90
74488;DHT22;63019;51.080;13.642;2023-08-24T02:25:25;17.70;99.90
74488;DHT22;63019;51.080;13.642;2023-08-24T02:26:27;17.60;99.90
74488;DHT22;63019;51.080;13.642;2023-08-24T02:27:29;17.60;99.90
74488;DHT22;63019;51.080;13.642;2023-08-24T02:28:32;17.60;99.90
74488;DHT22;63019;51.080;13.642;2023-08-24T02:29:34;17.60;99.90
74488;DHT22;63019;51.080;13.642;2023-08-24T02:30:39;17.60;99.90
74488;DHT22;63019;51.080;13.642;2023-08-24T02:31:41;17.50;99.90
74488;DHT22;63019;51.080;13.642;2023-08-24T02:32:43;17.50;99.90
74488;DHT22;63019;51.080;13.642;2023-08-24T02:33:45;17.50;99.90
74488;DHT22;63019;51.080;13.642;2023-08-24T02:34:46;17.50;99.90
74488;DHT22;63019;51.080;13.642;2023-08-24T02:35:48;17.50;99.90
74488;DHT22;63019;51.080;13.642;2023-08-24T02:36:50;17.40;99.90
74488;DHT22;63019;51.080;13.642;2023-08-24T02:37:52;17.40;99.90
74488;DHT22;63019;51.080;13.642;2023-08-24T02:38:56;17.30;99.90
74488;DHT22;63019;51.080;13.642;2023-08-24T02:39:58;17.30;99.90
74488;DHT22;63019;51.080;13.642;2023-08-24T02:41:01;17.30;99.90
74488;DHT22;63019;51.080;13.642;2023-08-24T02:42:04;17.30;99.90
74488;DHT22;63019;51.080;13.642;2023-08-24T02:43:06;17.30;99.90
74488;DHT22;63019;51.080;13.642;2023-08-24T02:44:09;17.30;99.90
74488;DHT22;63019;51.080;13.642;2023-08-24T02:45:11;17.30;99.90
74488;DHT22;63019;51.080;13.642;2023-08-24T02:46:12;17.30;99.90
74488;DHT22;63019;51.080;13.642;2023-08-24T02:47:14;17.30;99.90
74488;DHT22;63019;51.080;13.642;2023-08-24T02:48:16;17.30;99.90
74488;DHT22;63019;51.080;13.642;2023-08-24T02:49:18;17.30;99.90
74488;DHT22;63019;51.080;13.642;2023-08-24T02:50:20;17.30;99.90
74488;DHT22;63019;51.080;13.642;2023-08-24T02:51:22;17.30;99.90
74488;DHT22;63019;51.080;13.642;2023-08-24T02:52:24;17.30;99.90
74488;DHT22;63019;51.080;13.642;2023-08-24T02:53:26;17.30;99.90
74488;DHT22;63019;51.080;13.642;2023-08-24T02:54:28;17.30;99.90
74488;DHT22;63019;51.080;13.642;2023-08-24T02:55:32;17.30;99.90
74488;DHT22;63019;51.080;13.642;2023-08-24T02:56:34;17.30;99.90
74488;DHT22;63019;51.080;13.642;2023-08-24T02:57:36;17.30;99.90
74488;DHT22;63019;51.080;13.642;2023-08-24T02:58:37;17.30;99.90
74488;DHT22;63019;51.080;13.642;2023-08-24T02:59:39;17.30;99.90
74488;DHT22;63019;51.080;13.642;2023-08-24T03:00:45;17.30;99.90
74488;DHT22;63019;51.080;13.642;2023-08-24T03:01:46;17.20;99.90
74488;DHT22;63019;51.080;13.642;2023-08-24T03:02:48;17.20;99.90
74488;DHT22;63019;51.080;13.642;2023-08-24T03:03:50;17.10;99.90
74488;DHT22;63019;51.080;13.642;2023-08-24T03:04:52;17.10;99.90
74488;DHT22;63019;51.080;13.642;2023-08-24T03:06:05;17.10;99.90
74488;DHT22;63019;51.080;13.642;2023-08-24T03:07:07;17.20;99.90
74488;DHT22;63019;51.080;13.642;2023-08-24T03:08:10;17.20;99.90
74488;DHT22;63019;51.080;13.642;2023-08-24T03:09:12;17.20;99.90
74488;DHT22;63019;51.080;13.642;2023-08-24T03:10:14;17.20;99.90
74488;DHT22;63019;51.080;13.642;2023-08-24T03:11:16;17.20;99.90
74488;DHT22;63019;51.080;13.642;2023-08-24T03:12:18;17.20;99.90
74488;DHT22;63019;51.080;13.642;2023-08-24T03:13:19;17.20;99.90
74488;DHT22;63019;51.080;13.642;2023-08-24T03:14:21;17.20;99.90
74488;DHT22;63019;51.080;13.642;2023-08-24T03:15:23;17.10;99.90
74488;DHT22;63019;51.080;13.642;2023-08-24T03:16:26;17.10;99.90
74488;DHT22;63019;51.080;13.642;2023-08-24T03:17:28;17.10;99.90
74488;DHT22;63019;51.080;13.642;2023-08-24T03:18:30;17.20;99.90
74488;DHT22;63019;51.080;13.642;2023-08-24T03:19:32;17.20;99.90
74488;DHT22;63019;51.080;13.642;2023-08-24T03:20:34;17.20;99.90
74488;DHT22;63019;51.080;13.642;2023-08-24T03:21:35;17.20;99.90
74488;DHT22;63019;51.080;13.642;2023-08-24T03:22:37;17.20;99.90
74488;DHT22;63019;51.080;13.642;2023-08-24T03:23:39;17.20;99.90
74488;DHT22;63019;51.080;13.642;2023-08-24T03:24:41;17.20;99.90
74488;DHT22;63019;51.080;13.642;2023-08-24T03:25:43;17.20;99.90
74488;DHT22;63019;51.080;13.642;2023-08-24T03:26:45;17.20;99.90
74488;DHT22;63019;51.080;13.642;2023-08-24T03:27:47;17.20;99.90
74488;DHT22;63019;51.080;13.642;2023-08-24T03:28:50;17.20;99.90
74488;DHT22;63019;51.080;13.642;2023-08-24T03:29:53;17.10;99.90
74488;DHT22;63019;51.080;13.642;2023-08-24T03:30:55;17.20;99.90
74488;DHT22;63019;51.080;13.642;2023-08-24T03:31:57;17.20;99.90
74488;DHT22;63019;51.080;13.642;2023-08-24T03:32:59;17.20;99.90
74488;DHT22;63019;51.080;13.642;2023-08-24T03:34:01;17.20;99.90
74488;DHT22;63019;51.080;13.642;2023-08-24T03:35:05;17.20;99.90
74488;DHT22;63019;51.080;13.642;2023-08-24T03:36:07;17.20;99.90
74488;DHT22;63019;51.080;13.642;2023-08-24T03:37:09;17.10;99.90
74488;DHT22;63019;51.080;13.642;2023-08-24T03:38:11;17.20;99.90
74488;DHT22;63019;51.080;13.642;2023-08-24T03:39:13;17.10;99.90
74488;DHT22;63019;51.080;13.642;2023-08-24T03:40:17;17.10;99.90
74488;DHT22;63019;51.080;13.642;2023-08-24T03:41:18;17.10;99.90
74488;DHT22;63019;51.080;13.642;2023-08-24T03:42:20;17.10;99.90
74488;DHT22;63019;51.080;13.642;2023-08-24T03:43:22;17.10;99.90
74488;DHT22;63019;51.080;13.642;2023-08-24T03:44:24;17.10;99.90
74488;DHT22;63019;51.080;13.642;2023-08-24T03:45:26;17.10;99.90
74488;DHT22;63019;51.080;13.642;2023-08-24T03:46:28;17.10;99.90
74488;DHT22;63019;51.080;13.642;2023-08-24T03:47:30;17.10;99.90
74488;DHT22;63019;51.080;13.642;2023-08-24T03:48:32;17.10;99.90
74488;DHT22;63019;51.080;13.642;2023-08-24T03:49:34;17.10;99.90
74488;DHT22;63019;51.080;13.642;2023-08-24T03:50:36;17.10;99.90
74488;DHT22;63019;51.080;13.642;2023-08-24T03:51:38;17.10;99.90
74488;DHT22;63019;51.080;13.642;2023-08-24T03:52:40;17.10;99.90
74488;DHT22;63019;51.080;13.642;2023-08-24T03:53:41;17.10;99.90
74488;DHT22;63019;51.080;13.642;2023-08-24T03:54:43;17.10;99.90
74488;DHT22;63019;51.080;13.642;2023-08-24T03:55:47;17.10;99.90
74488;DHT22;63019;51.080;13.642;2023-08-24T03:56:50;17.10;99.90
74488;DHT22;63019;51.080;13.642;2023-08-24T03:57:52;17.00;99.90
74488;DHT22;63019;51.080;13.642;2023-08-24T03:58:56;17.00;99.90
74488;DHT22;63019;51.080;13.642;2023-08-24T03:59:57;17.00;99.90
74488;DHT22;63019;51.080;13.642;2023-08-24T04:00:59;17.00;99.90
74488;DHT22;63019;51.080;13.642;2023-08-24T04:02:01;17.00;99.90
74488;DHT22;63019;51.080;13.642;2023-08-24T04:03:04;17.00;99.90
74488;DHT22;63019;51.080;13.642;2023-08-24T04:04:06;16.90;99.90
74488;DHT22;63019;51.080;13.642;2023-08-24T04:05:08;16.90;99.90
74488;DHT22;63019;51.080;13.642;2023-08-24T04:06:10;16.90;99.90
74488;DHT22;63019;51.080;13.642;2023-08-24T04:07:12;16.90;99.90
74488;DHT22;63019;51.080;13.642;2023-08-24T04:08:14;16.90;99.90
74488;DHT22;63019;51.080;13.642;2023-08-24T04:09:16;16.90;99.90
74488;DHT22;63019;51.080;13.642;2023-08-24T04:10:18;16.90;99.90
74488;DHT22;63019;51.080;13.642;2023-08-24T04:11:20;16.90;99.90
74488;DHT22;63019;51.080;13.642;2023-08-24T04:12:22;16.90;99.90
74488;DHT22;63019;51.080;13.642;2023-08-24T04:13:24;16.90;99.90
74488;DHT22;63019;51.080;13.642;2023-08-24T04:14:25;16.90;99.90
74488;DHT22;63019;51.080;13.642;2023-08-24T04:15:27;16.80;99.90
74488;DHT22;63019;51.080;13.642;2023-08-24T04:16:29;16.80;99.90
74488;DHT22;63019;51.080;13.642;2023-08-24T04:17:31;16.80;99.90
74488;DHT22;63019;51.080;13.642;2023-08-24T04:18:33;16.80;99.90
74488;DHT22;63019;51.080;13.642;2023-08-24T04:19:38;16.70;99.90
74488;DHT22;63019;51.080;13.642;2023-08-24T04:20:40;16.70;99.90
74488;DHT22;63019;51.080;13.642;2023-08-24T04:21:42;16.70;99.90
74488;DHT22;63019;51.080;13.642;2023-08-24T04:22:44;16.70;99.90
74488;DHT22;63019;51.080;13.642;2023-08-24T04:23:46;16.70;99.90
74488;DHT22;63019;51.080;13.642;2023-08-24T04:24:47;16.70;99.90
74488;DHT22;63019;51.080;13.642;2023-08-24T04:25:50;16.70;99.90
74488;DHT22;63019;51.080;13.642;2023-08-24T04:26:52;16.70;99.90
74488;DHT22;63019;51.080;13.642;2023-08-24T04:27:54;16.70;99.90
74488;DHT22;63019;51.080;13.642;2023-08-24T04:28:56;16.70;99.90
74488;DHT22;63019;51.080;13.642;2023-08-24T04:29:58;16.70;99.90
74488;DHT22;63019;51.080;13.642;2023-08-24T04:30:59;16.70;99.90
74488;DHT22;63019;51.080;13.642;2023-08-24T04:32:01;16.70;99.90
74488;DHT22;63019;51.080;13.642;2023-08-24T04:33:03;16.70;99.90
74488;DHT22;63019;51.080;13.642;2023-08-24T04:34:06;16.70;99.90
74488;DHT22;63019;51.080;13.642;2023-08-24T04:35:08;16.70;99.90
74488;DHT22;63019;51.080;13.642;2023-08-24T04:36:10;16.70;99.90
74488;DHT22;63019;51.080;13.642;2023-08-24T04:37:11;16.80;99.90
74488;DHT22;63019;51.080;13.642;2023-08-24T04:38:14;16.80;99.90
74488;DHT22;63019;51.080;13.642;2023-08-24T04:39:16;16.80;99.90
74488;DHT22;63019;51.080;13.642;2023-08-24T04:40:20;16.80;99.90
74488;DHT22;63019;51.080;13.642;2023-08-24T04:41:22;16.80;99.90
74488;DHT22;63019;51.080;13.642;2023-08-24T04:42:23;16.80;99.90
74488;DHT22;63019;51.080;13.642;2023-08-24T04:43:26;16.80;99.90
74488;DHT22;63019;51.080;13.642;2023-08-24T04:44:28;16.80;99.90
74488;DHT22;63019;51.080;13.642;2023-08-24T04:45:30;16.80;99.90
74488;DHT22;63019;51.080;13.642;2023-08-24T04:46:32;16.90;99.90
74488;DHT22;63019;51.080;13.642;2023-08-24T04:47:34;16.90;99.90
74488;DHT22;63019;51.080;13.642;2023-08-24T04:48:35;16.90;99.90
74488;DHT22;63019;51.080;13.642;2023-08-24T04:49:37;16.90;99.90
74488;DHT22;63019;51.080;13.642;2023-08-24T04:50:39;17.00;99.90
74488;DHT22;63019;51.080;13.642;2023-08-24T04:51:41;17.00;99.90
74488;DHT22;63019;51.080;13.642;2023-08-24T04:52:43;17.00;99.90
74488;DHT22;63019;51.080;13.642;2023-08-24T04:53:45;17.00;99.90
74488;DHT22;63019;51.080;13.642;2023-08-24T04:54:47;17.00;99.90
74488;DHT22;63019;51.080;13.642;2023-08-24T04:55:48;17.10;99.90
74488;DHT22;63019;51.080;13.642;2023-08-24T04:56:50;17.10;99.90
74488;DHT22;63019;51.080;13.642;2023-08-24T04:57:52;17.20;99.90
74488;DHT22;63019;51.080;13.642;2023-08-24T04:58:56;17.10;99.90
74488;DHT22;63019;51.080;13.642;2023-08-24T05:00:02;17.20;99.90
74488;DHT22;63019;51.080;13.642;2023-08-24T05:01:07;17.20;99.90
74488;DHT22;63019;51.080;13.642;2023-08-24T05:02:09;17.20;99.90
74488;DHT22;63019;51.080;13.642;2023-08-24T05:03:11;17.20;99.90
74488;DHT22;63019;51.080;13.642;2023-08-24T05:04:13;17.20;99.90
74488;DHT22;63019;51.080;13.642;2023-08-24T05:05:14;17.30;99.90
74488;DHT22;63019;51.080;13.642;2023-08-24T05:06:16;17.30;99.90
74488;DHT22;63019;51.080;13.642;2023-08-24T05:07:18;17.30;99.90
74488;DHT22;63019;51.080;13.642;2023-08-24T05:08:20;17.30;99.90
74488;DHT22;63019;51.080;13.642;2023-08-24T05:09:22;17.30;99.90
74488;DHT22;63019;51.080;13.642;2023-08-24T05:10:24;17.30;99.90
74488;DHT22;63019;51.080;13.642;2023-08-24T05:11:28;17.30;99.90
74488;DHT22;63019;51.080;13.642;2023-08-24T05:12:32;17.30;99.90
74488;DHT22;63019;51.080;13.642;2023-08-24T05:13:37;17.40;99.90
74488;DHT22;63019;51.080;13.642;2023-08-24T05:14:38;17.40;99.90
74488;DHT22;63019;51.080;13.642;2023-08-24T05:15:40;17.40;99.90
74488;DHT22;63019;51.080;13.642;2023-08-24T05:16:42;17.40;99.90
74488;DHT22;63019;51.080;13.642;2023-08-24T05:17:44;17.50;99.90
74488;DHT22;63019;51.080;13.642;2023-08-24T05:18:46;17.50;99.90
74488;DHT22;63019;51.080;13.642;2023-08-24T05:19:51;17.50;99.90
74488;DHT22;63019;51.080;13.642;2023-08-24T05:20:53;17.60;99.90
74488;DHT22;63019;51.080;13.642;2023-08-24T05:21:55;17.60;99.90
74488;DHT22;63019;51.080;13.642;2023-08-24T05:22:57;17.60;99.90
74488;DHT22;63019;51.080;13.642;2023-08-24T05:23:59;17.70;99.90
74488;DHT22;63019;51.080;13.642;2023-08-24T05:25:01;17.70;99.90
74488;DHT22;63019;51.080;13.642;2023-08-24T05:26:03;17.70;99.90
74488;DHT22;63019;51.080;13.642;2023-08-24T05:27:05;17.70;99.90
74488;DHT22;63019;51.080;13.642;2023-08-24T05:28:07;17.70;99.90
74488;DHT22;63019;51.080;13.642;2023-08-24T05:29:09;17.80;99.90
74488;DHT22;63019;51.080;13.642;2023-08-24T05:30:11;17.80;99.90
74488;DHT22;63019;51.080;13.642;2023-08-24T05:31:13;17.80;99.90
74488;DHT22;63019;51.080;13.642;2023-08-24T05:32:15;17.80;99.90
74488;DHT22;63019;51.080;13.642;2023-08-24T05:33:17;17.80;99.90
74488;DHT22;63019;51.080;13.642;2023-08-24T05:34:19;17.80;99.90
74488;DHT22;63019;51.080;13.642;2023-08-24T05:35:20;17.80;99.90
74488;DHT22;63019;51.080;13.642;2023-08-24T05:36:24;17.80;99.90
74488;DHT22;63019;51.080;13.642;2023-08-24T05:37:26;17.80;99.90
74488;DHT22;63019;51.080;13.642;2023-08-24T05:38:27;17.80;99.90
74488;DHT22;63019;51.080;13.642;2023-08-24T05:39:30;17.80;99.90
74488;DHT22;63019;51.080;13.642;2023-08-24T05:40:33;17.80;99.90
74488;DHT22;63019;51.080;13.642;2023-08-24T05:41:36;17.80;99.90
74488;DHT22;63019;51.080;13.642;2023-08-24T05:42:38;17.90;99.90
74488;DHT22;63019;51.080;13.642;2023-08-24T05:43:40;17.90;99.90
74488;DHT22;63019;51.080;13.642;2023-08-24T05:44:42;17.90;99.90
74488;DHT22;63019;51.080;13.642;2023-08-24T05:45:45;17.90;99.90
74488;DHT22;63019;51.080;13.642;2023-08-24T05:46:48;17.90;99.90
74488;DHT22;63019;51.080;13.642;2023-08-24T05:47:50;18.00;99.90
74488;DHT22;63019;51.080;13.642;2023-08-24T05:48:52;18.00;99.90
74488;DHT22;63019;51.080;13.642;2023-08-24T05:49:54;18.00;99.90
74488;DHT22;63019;51.080;13.642;2023-08-24T05:50:56;18.00;99.90
74488;DHT22;63019;51.080;13.642;2023-08-24T05:51:58;18.00;99.90
74488;DHT22;63019;51.080;13.642;2023-08-24T05:52:59;18.00;99.90
74488;DHT22;63019;51.080;13.642;2023-08-24T05:54:01;18.10;99.90
74488;DHT22;63019;51.080;13.642;2023-08-24T05:55:03;18.10;99.90
74488;DHT22;63019;51.080;13.642;2023-08-24T05:56:05;18.10;99.90
74488;DHT22;63019;51.080;13.642;2023-08-24T05:57:07;18.10;99.90
74488;DHT22;63019;51.080;13.642;2023-08-24T05:58:09;18.10;99.90
74488;DHT22;63019;51.080;13.642;2023-08-24T05:59:11;18.20;99.90
74488;DHT22;63019;51.080;13.642;2023-08-24T06:00:13;18.20;99.90
74488;DHT22;63019;51.080;13.642;2023-08-24T06:01:15;18.20;99.90
74488;DHT22;63019;51.080;13.642;2023-08-24T06:02:17;18.20;99.90
74488;DHT22;63019;51.080;13.642;2023-08-24T06:03:18;18.30;99.90
74488;DHT22;63019;51.080;13.642;2023-08-24T06:04:20;18.30;99.90
74488;DHT22;63019;51.080;13.642;2023-08-24T06:05:22;18.40;99.90
74488;DHT22;63019;51.080;13.642;2023-08-24T06:06:24;18.40;99.90
74488;DHT22;63019;51.080;13.642;2023-08-24T06:07:26;18.40;99.90
74488;DHT22;63019;51.080;13.642;2023-08-24T06:08:28;18.40;99.90
74488;DHT22;63019;51.080;13.642;2023-08-24T06:09:30;18.50;99.90
74488;DHT22;63019;51.080;13.642;2023-08-24T06:10:32;18.50;99.90
74488;DHT22;63019;51.080;13.642;2023-08-24T06:11:33;18.50;99.90
74488;DHT22;63019;51.080;13.642;2023-08-24T06:12:35;18.60;99.90
74488;DHT22;63019;51.080;13.642;2023-08-24T06:13:37;18.60;99.90
74488;DHT22;63019;51.080;13.642;2023-08-24T06:14:39;18.60;99.90
74488;DHT22;63019;51.080;13.642;2023-08-24T06:15:42;18.70;99.90
74488;DHT22;63019;51.080;13.642;2023-08-24T06:16:43;18.70;99.90
74488;DHT22;63019;51.080;13.642;2023-08-24T06:17:45;18.70;99.90
74488;DHT22;63019;51.080;13.642;2023-08-24T06:18:50;18.70;99.90
74488;DHT22;63019;51.080;13.642;2023-08-24T06:19:52;18.80;99.90
74488;DHT22;63019;51.080;13.642;2023-08-24T06:20:54;18.80;99.90
74488;DHT22;63019;51.080;13.642;2023-08-24T06:21:56;18.80;99.90
74488;DHT22;63019;51.080;13.642;2023-08-24T06:22:58;18.90;99.90
74488;DHT22;63019;51.080;13.642;2023-08-24T06:23:59;18.90;99.90
74488;DHT22;63019;51.080;13.642;2023-08-24T06:25:03;18.90;99.90
74488;DHT22;63019;51.080;13.642;2023-08-24T06:26:06;19.00;99.90
74488;DHT22;63019;51.080;13.642;2023-08-24T06:27:08;19.00;99.90
74488;DHT22;63019;51.080;13.642;2023-08-24T06:28:11;19.10;99.90
74488;DHT22;63019;51.080;13.642;2023-08-24T06:29:13;19.10;99.90
74488;DHT22;63019;51.080;13.642;2023-08-24T06:30:15;19.20;99.90
74488;DHT22;63019;51.080;13.642;2023-08-24T06:31:17;19.20;99.90
74488;DHT22;63019;51.080;13.642;2023-08-24T06:32:19;19.30;99.90
74488;DHT22;63019;51.080;13.642;2023-08-24T06:33:21;19.30;99.90